Petersburg, WV

2:49 PM EDT on August 22, 2017 (GMT -0400)
Petersburg

Weather History for KW99 - April, 2014

Change the Weather History Date:

Sunday, April 20, 2014

  Actual Average (KEKN) Record (KEKN)
Temperature  
Mean Temperature 54 °F -  
Max Temperature 73 °F 66 °F 88 °F (1941)
Min Temperature 36 °F 36 °F 14 °F (1926)
Degree Days  
Heating Degree Days 10    
Growing Degree Days 4 (Base 50)    
Moisture  
Dew Point 37 °F    
Average Humidity 58    
Maximum Humidity 94    
Minimum Humidity 23    
Precipitation  
Precipitation 0.00 in - - ()
Sea Level Pressure  
Sea Level Pressure 30.32 in    
Wind  
Wind Speed 1 mph (SE)    
Max Wind Speed 10 mph    
Max Gust Speed -    
Visibility 10 miles    
Events      
Averages and records for this station are not official NWS values.
T = Trace of Precipitation, MM = Missing Value Source: NWS Daily Summary

Daily Weather History Graph

Daily Weather History Graph

Search for Another Location

Airport or City:

Trip Planner

Search our weather history database for the weather conditions in past years. The results will help you decide how hot, cold, wet, or windy it might be!

Date:

Astronomy

Apr. 20, 2014 Rise Set
Actual Time 6:32 AM EDT 7:58 PM EDT
Civil Twilight 6:04 AM EDT 8:26 PM EDT
Nautical Twilight 5:31 AM EDT 9:00 PM EDT
Astronomical Twilight 4:56 AM EDT 9:35 PM EDT
Moon 12:35 AM EDT (4/20) 10:52 AM EDT (4/20)
Length of Visible Light 14h 21m
Length of Day
13h 25m
Waning Gibbous, 69% of the Moon is Illuminated
Apr 20
Waning Gibbous
Apr 22
Last Quarter
Apr 29
New
May 6
First Quarter
May 14
Full

Hourly Weather History & Observations

Time (EDT) Temp. Dew Point Humidity Pressure Visibility Wind Dir Wind Speed Gust Speed Precip Events Conditions
12:15 AM 48.4 °F 41.5 °F 77% 30.32 in 10.0 mi Calm Calm - N/A   Clear
12:35 AM 47.5 °F 40.8 °F 78% 30.32 in 10.0 mi Calm Calm - N/A   Clear
12:55 AM 47.3 °F 43.0 °F 85% 30.33 in 10.0 mi Calm Calm - N/A   Clear
1:15 AM 46.2 °F 40.5 °F 80% 30.33 in 10.0 mi Calm Calm - N/A   Clear
1:35 AM 46.4 °F 41.7 °F 84% 30.33 in 10.0 mi Calm Calm - N/A   Clear
1:55 AM 45.0 °F 41.4 °F 87% 30.33 in 10.0 mi Calm Calm - N/A   Clear
2:15 AM 44.8 °F 40.6 °F 85% 30.33 in 10.0 mi Calm Calm - N/A   Clear
2:35 AM 44.8 °F 39.9 °F 83% 30.33 in 10.0 mi Calm Calm - N/A   Clear
2:55 AM 42.1 °F 38.7 °F 88% 30.33 in 10.0 mi Calm Calm - N/A   Clear
3:15 AM 42.3 °F 38.7 °F 87% 30.34 in 10.0 mi Calm Calm - N/A   Clear
3:35 AM 42.3 °F 38.8 °F 88% 30.34 in 10.0 mi Calm Calm - N/A   Clear
3:55 AM 40.8 °F 37.2 °F 87% 30.34 in 10.0 mi Calm Calm - N/A   Clear
4:15 AM 40.3 °F 37.2 °F 89% 30.34 in 10.0 mi Calm Calm - N/A   Clear
4:35 AM 39.9 °F 36.9 °F 89% 30.35 in 10.0 mi Calm Calm - N/A   Clear
4:55 AM 39.2 °F 36.5 °F 90% 30.35 in 10.0 mi Calm Calm - N/A   Clear
5:15 AM 37.6 °F 35.1 °F 91% 30.36 in 10.0 mi Calm Calm - N/A   Clear
5:35 AM 37.6 °F 35.6 °F 93% 30.36 in 10.0 mi Calm Calm - N/A   Clear
5:55 AM 37.9 °F 35.4 °F 91% 30.37 in 10.0 mi Calm Calm - N/A   Clear
6:15 AM 38.1 °F 36.3 °F 93% 30.37 in 10.0 mi Calm Calm - N/A   Clear
6:55 AM 37.6 °F 35.8 °F 93% 30.38 in 10.0 mi Calm Calm - N/A   Clear
7:15 AM 36.9 °F 35.1 °F 93% 30.39 in 10.0 mi Calm Calm - N/A   Clear
7:35 AM 37.4 °F 35.8 °F 94% 30.39 in 10.0 mi Calm Calm - N/A   Clear
7:55 AM 39.7 °F 38.1 °F 94% 30.40 in 10.0 mi Calm Calm - N/A   Clear
8:15 AM 42.1 °F 39.0 °F 89% 30.41 in 10.0 mi Calm Calm - N/A   Clear
8:35 AM 44.4 °F 39.4 °F 82% 30.41 in 10.0 mi Calm Calm - N/A   Clear
8:55 AM 46.9 °F 39.7 °F 76% 30.40 in 10.0 mi Calm Calm - N/A   Clear
9:15 AM 49.6 °F 39.9 °F 69% 30.40 in 10.0 mi Calm Calm - N/A   Clear
9:35 AM 51.8 °F 38.7 °F 61% 30.40 in 10.0 mi Calm Calm - N/A   Clear
9:55 AM 54.1 °F 37.6 °F 54% 30.40 in 10.0 mi Calm Calm - N/A   Clear
10:15 AM 56.5 °F 34.5 °F 44% 30.40 in 10.0 mi Calm Calm - N/A   Clear
10:35 AM 58.1 °F 35.8 °F 43% 30.41 in 10.0 mi Calm Calm - N/A   Clear
10:55 AM 59.4 °F 35.8 °F 41% 30.41 in 10.0 mi Calm Calm - N/A   Clear
11:15 AM 61.5 °F 35.8 °F 38% 30.40 in 10.0 mi Calm Calm - N/A   Clear
11:35 AM 63.7 °F 37.6 °F 38% 30.39 in 10.0 mi East 4.6 mph - N/A   Clear
11:55 AM 63.9 °F 36.1 °F 36% 30.38 in 10.0 mi Calm Calm - N/A   Clear
12:15 PM 64.4 °F 35.4 °F 34% 30.38 in 10.0 mi SSW 4.6 mph - N/A   Clear
12:35 PM 65.7 °F 36.1 °F 34% 30.37 in 10.0 mi SSE 3.5 mph - N/A   Clear
12:55 PM 67.1 °F 37.8 °F 34% 30.35 in 10.0 mi Calm Calm - N/A   Clear
1:15 PM 67.3 °F 36.5 °F 32% 30.34 in 10.0 mi West 3.5 mph - N/A   Clear
1:35 PM 69.1 °F 35.6 °F 29% 30.34 in 10.0 mi Calm Calm - N/A   Clear
1:55 PM 69.8 °F 35.8 °F 29% 30.33 in 10.0 mi NE 4.6 mph - N/A   Clear
2:15 PM 70.9 °F 35.8 °F 28% 30.32 in 10.0 mi SSE 5.8 mph - N/A   Clear
2:35 PM 70.5 °F 34.2 °F 26% 30.32 in 10.0 mi SE 4.6 mph - N/A   Clear
2:55 PM 71.4 °F 34.0 °F 25% 30.30 in 10.0 mi South 8.1 mph - N/A   Clear
3:15 PM 72.5 °F 34.7 °F 25% 30.29 in 10.0 mi SSE 3.5 mph - N/A   Clear
3:35 PM 72.3 °F 32.7 °F 23% 30.28 in 10.0 mi North 3.5 mph - N/A   Clear
3:55 PM 72.7 °F 32.9 °F 23% 30.28 in 10.0 mi Calm Calm - N/A   Clear
4:15 PM 72.9 °F 34.0 °F 24% 30.27 in 10.0 mi Calm Calm - N/A   Clear
4:35 PM 73.4 °F 35.4 °F 25% 30.26 in 10.0 mi East 8.1 mph - N/A   Clear
4:55 PM 73.0 °F 33.4 °F 23% 30.26 in 10.0 mi East 10.4 mph - N/A   Clear
5:15 PM 73.4 °F 34.3 °F 24% 30.25 in 10.0 mi East 5.8 mph - N/A   Clear
5:35 PM 72.3 °F 34.2 °F 25% 30.25 in 10.0 mi ESE 6.9 mph - N/A   Clear
5:55 PM 71.4 °F 34.7 °F 26% 30.25 in 10.0 mi Calm Calm - N/A   Clear
6:15 PM 70.7 °F 34.9 °F 27% 30.25 in 10.0 mi SE 9.2 mph - N/A   Clear
6:35 PM 70.0 °F 35.2 °F 28% 30.24 in 10.0 mi SE 9.2 mph - N/A   Clear
6:55 PM 69.1 °F 36.0 °F 30% 30.25 in 10.0 mi SE 9.2 mph - N/A   Clear
7:15 PM 67.8 °F 34.3 °F 29% 30.25 in 10.0 mi ESE 9.2 mph - N/A   Clear
7:35 PM 67.3 °F 33.1 °F 28% 30.25 in 10.0 mi ESE 10.4 mph - N/A   Clear
7:55 PM 65.1 °F 34.3 °F 32% 30.25 in 10.0 mi ESE 6.9 mph - N/A   Clear
8:15 PM 64.0 °F 34.2 °F 33% 30.25 in 10.0 mi ESE 6.9 mph - N/A   Clear
8:35 PM 62.2 °F 34.2 °F 35% 30.25 in 10.0 mi SE 5.8 mph - N/A   Clear
9:15 PM 54.0 °F 40.1 °F 59% 30.27 in 10.0 mi Calm Calm - N/A   Clear
9:35 PM 50.4 °F 39.6 °F 66% 30.27 in 10.0 mi Calm Calm - N/A   Clear
9:55 PM 50.4 °F 39.2 °F 66% 30.27 in 10.0 mi WNW 3.5 mph - N/A   Clear
10:15 PM 52.2 °F 40.3 °F 64% 30.27 in 10.0 mi Calm Calm - N/A   Clear
10:35 PM 48.0 °F 40.3 °F 75% 30.27 in 10.0 mi Calm Calm - N/A   Clear
10:55 PM 48.7 °F 39.9 °F 72% 30.26 in 10.0 mi Calm Calm - N/A   Clear
11:15 PM 48.4 °F 40.1 °F 73% 30.25 in 10.0 mi Calm Calm - N/A   Clear
11:35 PM 47.3 °F 40.1 °F 76% 30.25 in 10.0 mi Calm Calm - N/A   Clear
11:55 PM 46.6 °F 39.7 °F 77% 30.25 in 10.0 mi Calm Calm - N/A   Clear